Time;durP1;ratioP1;P1;durP2;ratioP2;P2;SDS_P1;SDS_P2;PMS_P1;PMS_P2;Temp;Humidity;BMP_temperature;BMP_pressure;BME280_temperature;BME280_humidity;BME280_pressure;Samples;Min_cycle;Max_cycle;Signal;HPM_P1;HPM_P2
2021/10/27 00:00:57;;;;;;;7.38;6.13;;;5.40;99.90;;;;;;4988176;28;20453;-73
2021/10/27 00:03:29;;;;;;;10.13;6.50;;;5.40;99.90;;;;;;4955921;28;20051;-74
2021/10/27 00:05:56;;;;;;;7.88;6.05;;;5.40;99.90;;;;;;4971834;28;20058;-74
2021/10/27 00:08:23;;;;;;;7.63;6.25;;;5.40;99.90;;;;;;4956111;28;20167;-73
2021/10/27 00:10:51;;;;;;;7.32;6.07;;;5.40;99.90;;;;;;4955666;28;20047;-74
2021/10/27 00:13:18;;;;;;;7.45;5.95;;;5.40;99.90;;;;;;4971469;28;20043;-74
2021/10/27 00:15:45;;;;;;;5.78;5.13;;;5.40;99.90;;;;;;4970902;28;20085;-73
2021/10/27 00:18:13;;;;;;;4.72;4.28;;;5.30;99.90;;;;;;4955223;28;20054;-74
2021/10/27 00:20:40;;;;;;;6.28;4.75;;;5.20;99.90;;;;;;4972493;28;20074;-73
2021/10/27 00:23:11;;;;;;;5.28;4.78;;;5.10;99.90;;;;;;4988073;28;20734;-73
2021/10/27 00:25:43;;;;;;;6.13;5.10;;;4.90;99.90;;;;;;4955133;28;20141;-73
2021/10/27 00:28:10;;;;;;;6.40;5.35;;;4.80;99.90;;;;;;4955894;28;20137;-73
2021/10/27 00:30:44;;;;;;;5.63;4.63;;;4.70;99.90;;;;;;4972875;28;20039;-73
2021/10/27 00:33:11;;;;;;;8.45;5.25;;;4.60;99.90;;;;;;4972833;28;20047;-74
2021/10/27 00:35:43;;;;;;;10.65;4.85;;;4.60;99.90;;;;;;4986655;28;20043;-73
2021/10/27 00:38:15;;;;;;;6.63;5.13;;;4.50;99.90;;;;;;4955655;28;20043;-73
2021/10/27 00:40:47;;;;;;;6.35;5.15;;;4.50;99.90;;;;;;4955434;28;20045;-74
2021/10/27 00:43:19;;;;;;;6.90;4.40;;;4.40;99.90;;;;;;4972724;28;20049;-73
2021/10/27 00:45:46;;;;;;;5.10;4.35;;;4.40;99.90;;;;;;4954998;28;20042;-73
2021/10/27 00:48:18;;;;;;;5.15;4.53;;;4.50;99.90;;;;;;4972952;28;20042;-73
2021/10/27 00:50:50;;;;;;;4.35;3.92;;;4.50;99.90;;;;;;4955444;28;20039;-73
2021/10/27 00:53:17;;;;;;;5.05;4.55;;;4.50;99.90;;;;;;4973176;28;20049;-73
2021/10/27 00:55:45;;;;;;;4.60;4.20;;;4.50;99.90;;;;;;4973059;28;20390;-73
2021/10/27 00:58:17;;;;;;;5.10;4.60;;;4.50;99.90;;;;;;4972909;28;20041;-73
2021/10/27 01:00:49;;;;;;;6.03;4.72;;;4.50;99.90;;;;;;4955214;28;20042;-73
2021/10/27 01:03:16;;;;;;;5.80;4.72;;;4.60;99.90;;;;;;4972260;28;20035;-73
2021/10/27 01:05:43;;;;;;;6.35;4.88;;;4.60;99.90;;;;;;4970709;28;20039;-73
2021/10/27 01:08:11;;;;;;;6.60;5.15;;;4.60;99.90;;;;;;4971321;28;20049;-73
2021/10/27 01:10:37;;;;;;;11.50;5.93;;;4.60;99.90;;;;;;4987422;28;20051;-74
2021/10/27 01:13:04;;;;;;;11.15;5.85;;;4.60;99.90;;;;;;4972064;28;20050;-74
2021/10/27 01:15:40;;;;;;;8.55;6.20;;;4.50;99.90;;;;;;4953163;28;20061;-74
2021/10/27 01:18:13;;;;;;;7.43;5.70;;;4.50;99.90;;;;;;4954063;28;20051;-74
2021/10/27 01:20:40;;;;;;;6.63;5.60;;;4.50;99.90;;;;;;4972487;28;20524;-73
2021/10/27 01:23:07;;;;;;;6.47;5.55;;;4.50;99.90;;;;;;4955101;28;20047;-74
2021/10/27 01:25:34;;;;;;;6.40;5.32;;;4.50;99.90;;;;;;4972507;28;20106;-73
2021/10/27 01:28:01;;;;;;;5.43;4.45;;;4.50;99.90;;;;;;4955642;28;20035;-73
2021/10/27 01:30:33;;;;;;;5.18;4.68;;;4.50;99.90;;;;;;4955575;28;20055;-73
2021/10/27 01:33:05;;;;;;;7.30;5.70;;;4.50;99.90;;;;;;4955921;28;20035;-73
2021/10/27 01:35:38;;;;;;;6.80;5.28;;;4.50;99.90;;;;;;4971115;28;20121;-73
2021/10/27 01:38:10;;;;;;;6.68;5.43;;;4.50;99.90;;;;;;4971368;28;20444;-73
2021/10/27 01:40:38;;;;;;;8.93;6.35;;;4.50;99.90;;;;;;4955251;28;20497;-73
2021/10/27 01:43:10;;;;;;;16.95;6.57;;;4.40;99.90;;;;;;4954833;28;20062;-72
2021/10/27 01:45:43;;;;;;;8.52;5.93;;;4.30;99.90;;;;;;4954628;28;20054;-73
2021/10/27 01:48:10;;;;;;;7.80;6.28;;;4.30;99.90;;;;;;4957629;28;20111;-73
2021/10/27 01:50:46;;;;;;;7.35;5.38;;;4.30;99.90;;;;;;4959413;28;20106;-73
2021/10/27 01:53:14;;;;;;;6.70;5.65;;;4.30;99.90;;;;;;4959512;28;20042;-74
2021/10/27 01:55:46;;;;;;;7.20;5.75;;;4.30;99.90;;;;;;4958958;28;20043;-73
2021/10/27 01:58:17;;;;;;;7.20;5.88;;;4.30;99.90;;;;;;4959344;28;20047;-73
2021/10/27 02:00:44;;;;;;;6.45;5.25;;;4.30;99.90;;;;;;4959024;28;20054;-73
2021/10/27 02:03:16;;;;;;;7.25;5.90;;;4.30;99.90;;;;;;4959263;28;20047;-73
2021/10/27 02:05:43;;;;;;;7.07;5.68;;;4.30;99.90;;;;;;4976168;28;20058;-73
2021/10/27 02:08:11;;;;;;;8.25;5.32;;;4.30;99.90;;;;;;4976450;28;20039;-73
2021/10/27 02:10:43;;;;;;;6.35;5.20;;;4.30;99.90;;;;;;4959977;28;20039;-73
2021/10/27 02:13:15;;;;;;;6.60;5.03;;;4.30;99.90;;;;;;4958723;28;20102;-73
2021/10/27 02:15:47;;;;;;;5.88;4.95;;;4.20;99.90;;;;;;4958583;28;20058;-73
2021/10/27 02:18:19;;;;;;;5.50;4.80;;;4.20;99.90;;;;;;4959281;28;20043;-73
2021/10/27 02:20:46;;;;;;;5.78;4.65;;;4.10;99.90;;;;;;4958945;28;20061;-73
2021/10/27 02:23:15;;;;;;;5.10;4.60;;;4.10;99.90;;;;;;4942988;28;20054;-73
2021/10/27 02:25:47;;;;;;;6.10;5.07;;;4.10;99.90;;;;;;4958295;28;20510;-73
2021/10/27 02:28:14;;;;;;;6.85;5.70;;;4.10;99.90;;;;;;4976059;28;20039;-74
2021/10/27 02:30:46;;;;;;;5.60;4.72;;;4.00;99.90;;;;;;4958936;28;20524;-73
2021/10/27 02:33:17;;;;;;;6.15;5.18;;;4.00;99.90;;;;;;4958670;28;20043;-73
2021/10/27 02:35:49;;;;;;;7.05;5.07;;;4.00;99.90;;;;;;4959301;28;20094;-73
2021/10/27 02:38:21;;;;;;;5.60;5.00;;;4.00;99.90;;;;;;4958617;28;20051;-74
2021/10/27 02:40:48;;;;;;;6.15;5.55;;;4.00;99.90;;;;;;4974478;28;20051;-73
2021/10/27 02:43:20;;;;;;;6.38;5.00;;;4.10;99.90;;;;;;4959256;28;20061;-74
2021/10/27 02:45:52;;;;;;;5.65;4.18;;;4.00;99.90;;;;;;4958962;28;20497;-72
2021/10/27 02:48:24;;;;;;;5.30;4.80;;;3.90;99.90;;;;;;4957606;28;20051;-73
2021/10/27 02:50:51;;;;;;;5.82;4.60;;;3.80;99.90;;;;;;4975553;28;20512;-73
2021/10/27 02:53:18;;;;;;;4.28;3.88;;;3.80;99.90;;;;;;4958382;28;20057;-73
2021/10/27 02:55:50;;;;;;;5.07;4.38;;;3.80;99.90;;;;;;4957813;28;20049;-73
2021/10/27 02:58:21;;;;;;;5.95;5.35;;;3.80;99.90;;;;;;4958193;28;20042;-74
2021/10/27 03:00:54;;;;;;;5.85;4.93;;;3.70;99.90;;;;;;4975454;28;20045;-73
2021/10/27 03:03:25;;;;;;;4.78;4.38;;;3.80;99.90;;;;;;4975349;28;20485;-73
2021/10/27 03:05:57;;;;;;;5.00;4.32;;;3.80;99.90;;;;;;4971109;28;20042;-74
2021/10/27 03:08:24;;;;;;;5.00;4.47;;;3.80;99.90;;;;;;4973602;28;20051;-73
2021/10/27 03:10:56;;;;;;;5.00;4.50;;;3.80;99.90;;;;;;4956656;28;20035;-73
2021/10/27 03:13:28;;;;;;;5.72;5.13;;;3.80;99.90;;;;;;4978359;28;20390;-73
2021/10/27 03:16:00;;;;;;;6.07;4.70;;;3.70;99.90;;;;;;4967253;28;20046;-73
2021/10/27 03:18:32;;;;;;;6.10;5.00;;;3.70;99.90;;;;;;4977732;28;20047;-74
2021/10/27 03:21:04;;;;;;;8.02;6.40;;;3.70;99.90;;;;;;4974739;28;20043;-73
2021/10/27 03:23:36;;;;;;;7.97;6.50;;;3.70;99.90;;;;;;4973594;28;20050;-74
2021/10/27 03:26:03;;;;;;;6.88;5.95;;;3.60;99.90;;;;;;4972954;28;20069;-73
2021/10/27 03:28:35;;;;;;;11.73;7.32;;;3.60;99.90;;;;;;4973416;28;20050;-73
2021/10/27 03:31:07;;;;;;;7.43;6.18;;;3.60;99.90;;;;;;4974681;28;20512;-74
2021/10/27 03:33:35;;;;;;;9.20;7.13;;;3.60;99.90;;;;;;4951484;28;20539;-73
2021/10/27 03:36:02;;;;;;;11.80;6.72;;;3.60;99.90;;;;;;4991421;28;20499;-73
2021/10/27 03:38:34;;;;;;;7.15;5.97;;;3.60;99.90;;;;;;4987005;28;20057;-73
2021/10/27 03:41:06;;;;;;;14.30;8.93;;;3.80;99.90;;;;;;4973682;28;20057;-73
2021/10/27 03:43:38;;;;;;;13.52;10.00;;;3.90;99.90;;;;;;4993242;28;20051;-73
2021/10/27 03:46:06;;;;;;;29.55;15.80;;;3.90;99.90;;;;;;4955042;28;20101;-73
2021/10/27 03:48:33;;;;;;;10.45;7.53;;;3.80;99.90;;;;;;4957347;28;20050;-74
2021/10/27 03:51:00;;;;;;;7.63;6.20;;;3.80;99.90;;;;;;4972796;28;20047;-73
2021/10/27 03:53:26;;;;;;;8.90;6.65;;;3.70;99.90;;;;;;4973796;28;20050;-73
2021/10/27 03:55:58;;;;;;;9.77;7.28;;;3.70;99.90;;;;;;4956370;28;20050;-73
2021/10/27 03:58:25;;;;;;;9.98;8.05;;;3.60;99.90;;;;;;4972695;28;20053;-73
2021/10/27 04:00:52;;;;;;;13.13;9.38;;;3.60;99.90;;;;;;4973807;28;20047;-74
2021/10/27 04:03:23;;;;;;;16.65;11.85;;;3.60;99.90;;;;;;4988360;28;20051;-74
2021/10/27 04:05:50;;;;;;;23.67;14.30;;;3.60;99.90;;;;;;4956083;28;20055;-73
2021/10/27 04:08:23;;;;;;;19.65;12.38;;;3.50;99.90;;;;;;4956425;28;20513;-73
2021/10/27 04:10:55;;;;;;;20.92;13.35;;;3.50;99.90;;;;;;4970088;28;20561;-73
2021/10/27 04:13:26;;;;;;;21.17;13.00;;;3.40;99.90;;;;;;4954584;28;20054;-74
2021/10/27 04:15:53;;;;;;;19.92;12.73;;;3.40;99.90;;;;;;4954936;28;20058;-74
2021/10/27 04:18:25;;;;;;;18.27;11.98;;;3.30;99.90;;;;;;4990395;28;20162;-73
2021/10/27 04:20:58;;;;;;;18.98;11.98;;;3.30;99.90;;;;;;4974606;28;20057;-73
2021/10/27 04:23:25;;;;;;;21.17;13.13;;;3.30;99.90;;;;;;4972709;28;20051;-73
2021/10/27 04:25:57;;;;;;;16.80;10.57;;;3.30;99.90;;;;;;4955762;28;20039;-74
2021/10/27 04:28:24;;;;;;;15.63;10.65;;;3.30;99.90;;;;;;4955536;28;20050;-74
2021/10/27 04:30:51;;;;;;;14.52;9.13;;;3.30;99.90;;;;;;4955436;28;20489;-74
2021/10/27 04:33:23;;;;;;;10.40;7.47;;;3.20;99.90;;;;;;4971093;28;20050;-74
2021/10/27 04:35:55;;;;;;;11.95;8.90;;;3.30;99.90;;;;;;4970796;28;20418;-73
2021/10/27 04:38:22;;;;;;;15.27;8.50;;;3.20;99.90;;;;;;4971600;28;20094;-74
2021/10/27 04:40:55;;;;;;;12.82;8.73;;;3.20;99.90;;;;;;4971509;28;20133;-73
2021/10/27 04:43:22;;;;;;;10.70;7.70;;;3.20;99.90;;;;;;4953688;28;20059;-74
2021/10/27 04:45:54;;;;;;;9.23;6.95;;;3.10;99.90;;;;;;4965956;28;20061;-73
2021/10/27 04:48:26;;;;;;;10.63;7.45;;;3.10;99.90;;;;;;4973206;28;20053;-73
2021/10/27 04:50:57;;;;;;;9.23;6.45;;;3.20;99.90;;;;;;4956477;28;20493;-73
2021/10/27 04:53:29;;;;;;;9.07;6.40;;;3.10;99.90;;;;;;4952179;28;20106;-73
2021/10/27 04:56:01;;;;;;;9.98;7.15;;;3.20;99.90;;;;;;4951994;29;20061;-73
2021/10/27 04:58:33;;;;;;;8.98;7.00;;;3.30;99.90;;;;;;4951884;29;20565;-73
2021/10/27 05:01:05;;;;;;;10.45;8.32;;;3.30;99.90;;;;;;4967775;28;20151;-73
2021/10/27 05:03:37;;;;;;;9.90;7.22;;;3.30;99.90;;;;;;4966835;28;20454;-73
2021/10/27 05:06:09;;;;;;;9.48;6.85;;;3.30;99.90;;;;;;4952521;29;20047;-73
2021/10/27 05:08:42;;;;;;;9.00;7.70;;;3.30;99.90;;;;;;4953141;28;20437;-73
2021/10/27 05:11:14;;;;;;;10.40;8.43;;;3.30;99.90;;;;;;4967884;28;20063;-73
2021/10/27 05:13:46;;;;;;;8.55;7.65;;;3.30;99.90;;;;;;4954936;28;20406;-73
2021/10/27 05:16:18;;;;;;;7.78;6.95;;;3.40;99.90;;;;;;4952926;28;20046;-73
2021/10/27 05:18:45;;;;;;;8.38;7.43;;;3.40;99.90;;;;;;4972042;28;20042;-72
2021/10/27 05:21:17;;;;;;;7.43;6.63;;;3.40;99.90;;;;;;4954646;28;20050;-73
2021/10/27 05:23:44;;;;;;;16.02;14.05;;;3.40;99.90;;;;;;4954233;28;20055;-73
2021/10/27 05:26:16;;;;;;;22.30;11.70;;;3.40;99.90;;;;;;4939080;28;20054;-73
2021/10/27 05:28:48;;;;;;;30.75;10.73;;;3.40;99.90;;;;;;4954555;28;20514;-73
2021/10/27 05:31:20;;;;;;;20.42;12.23;;;3.40;99.90;;;;;;4954798;28;20046;-74
2021/10/27 05:33:47;;;;;;;17.80;11.43;;;3.40;99.90;;;;;;4954750;28;20050;-73
2021/10/27 05:36:19;;;;;;;20.55;11.80;;;3.50;99.90;;;;;;4970050;28;20046;-73
2021/10/27 05:38:50;;;;;;;24.08;13.57;;;3.50;99.90;;;;;;4971934;28;20039;-73
2021/10/27 05:41:22;;;;;;;29.52;11.23;;;3.50;99.90;;;;;;4955506;28;20051;-73
2021/10/27 05:43:57;;;;;;;24.60;11.48;;;3.50;99.90;;;;;;4953585;28;20062;-74
2021/10/27 05:46:29;;;;;;;25.90;15.43;;;3.50;99.90;;;;;;4970497;28;20043;-73
2021/10/27 05:49:07;;;;;;;50.50;16.13;;;3.50;99.90;;;;;;4970716;28;20043;-73
2021/10/27 05:57:05;;;;;;;18.67;10.95;;;3.50;99.90;;;;;;4954546;28;20080;-73
2021/10/27 05:59:37;;;;;;;20.80;12.15;;;3.50;99.90;;;;;;4971908;28;20067;-73
2021/10/27 06:02:04;;;;;;;19.90;12.52;;;3.60;99.90;;;;;;4954549;28;20105;-73
2021/10/27 06:04:32;;;;;;;19.17;12.73;;;3.60;99.90;;;;;;4953713;28;20043;-73
2021/10/27 06:07:03;;;;;;;20.95;12.95;;;3.70;99.90;;;;;;4955148;28;20043;-73
2021/10/27 06:09:37;;;;;;;19.48;11.88;;;3.70;99.90;;;;;;4970722;28;20050;-73
2021/10/27 06:12:13;;;;;;;21.50;13.45;;;3.80;99.90;;;;;;4954462;28;20078;-73
2021/10/27 06:14:45;;;;;;;48.28;26.65;;;3.90;99.90;;;;;;4971447;28;20043;-73
2021/10/27 06:17:17;;;;;;;47.45;23.95;;;3.90;99.90;;;;;;4955121;28;20093;-73
2021/10/27 06:19:52;;;;;;;33.90;16.98;;;3.90;99.90;;;;;;4955587;28;20544;-74
2021/10/27 06:22:21;;;;;;;32.05;15.20;;;3.90;99.90;;;;;;4954024;28;20051;-73
2021/10/27 06:24:48;;;;;;;30.48;15.73;;;3.90;99.90;;;;;;4953753;28;20046;-73
2021/10/27 06:27:15;;;;;;;47.35;21.92;;;3.90;99.90;;;;;;4971389;28;20094;-73
2021/10/27 06:29:46;;;;;;;40.63;22.17;;;3.90;99.90;;;;;;4971336;28;20097;-73
2021/10/27 06:32:37;;;;;;;46.65;28.90;;;3.80;99.90;;;;;;4954511;28;20158;-73
2021/10/27 06:35:11;;;;;;;76.28;45.67;;;3.90;99.90;;;;;;4957158;28;20106;-73
2021/10/27 06:46:25;;;;;;;45.63;27.65;;;3.90;99.90;;;;;;4957184;28;20573;-73
2021/10/27 06:48:53;;;;;;;39.03;20.23;;;3.90;99.90;;;;;;4974814;28;20047;-73
2021/10/27 06:51:21;;;;;;;36.60;18.70;;;4.00;99.90;;;;;;4973583;28;20418;-73
2021/10/27 06:53:48;;;;;;;30.60;18.08;;;4.00;99.90;;;;;;4957183;28;20050;-73
2021/10/27 06:56:18;;;;;;;36.17;18.75;;;4.10;99.90;;;;;;4956955;28;20054;-73
2021/10/27 07:15:32;;;;;;;30.90;15.80;;;4.30;99.90;;;;;;4956239;28;20047;-73
2021/10/27 07:18:04;;;;;;;28.20;16.77;;;4.40;99.90;;;;;;4974400;28;20035;-74
2021/10/27 07:20:36;;;;;;;46.47;21.02;;;4.50;99.90;;;;;;4974263;28;20097;-73
2021/10/27 07:23:04;;;;;;;44.42;19.85;;;4.60;99.90;;;;;;4974109;28;20034;-73
2021/10/27 07:25:38;;;;;;;43.17;16.97;;;4.60;99.90;;;;;;4971733;28;20050;-73
2021/10/27 07:28:10;;;;;;;37.88;12.80;;;4.60;99.90;;;;;;4974100;28;20066;-74
2021/10/27 07:30:44;;;;;;;46.03;14.20;;;4.60;99.90;;;;;;4957653;28;20564;-73
2021/10/27 07:33:16;;;;;;;31.42;13.25;;;4.70;99.90;;;;;;4972834;28;20094;-73
2021/10/27 07:35:53;;;;;;;23.70;14.20;;;4.60;99.90;;;;;;4957054;28;20038;-73
2021/10/27 07:41:12;;;;;;;23.75;11.40;;;4.80;99.90;;;;;;4956559;28;20059;-74
2021/10/27 07:43:41;;;;;;;24.42;11.30;;;4.90;99.90;;;;;;4972500;28;20117;-74
2021/10/27 07:46:08;;;;;;;29.05;13.60;;;5.00;99.90;;;;;;4955317;28;20059;-74
2021/10/27 07:48:35;;;;;;;20.25;12.57;;;5.00;99.90;;;;;;4956375;28;20101;-73
2021/10/27 07:51:07;;;;;;;35.25;18.83;;;5.00;99.90;;;;;;4973638;28;20064;-74
2021/10/27 07:53:39;;;;;;;31.02;15.52;;;5.10;99.90;;;;;;4971568;28;20502;-71
2021/10/27 07:56:06;;;;;;;20.98;12.30;;;5.10;99.90;;;;;;4988102;28;20043;-74
2021/10/27 07:58:38;;;;;;;21.92;10.57;;;5.20;99.90;;;;;;4957148;28;20042;-73
2021/10/27 08:01:05;;;;;;;22.42;12.05;;;5.20;99.90;;;;;;4973461;28;20053;-72
2021/10/27 08:03:32;;;;;;;28.27;10.50;;;5.30;99.90;;;;;;4956382;28;20062;-73
2021/10/27 08:06:06;;;;;;;17.45;11.40;;;5.30;99.90;;;;;;4956571;28;20050;-72
2021/10/27 08:08:38;;;;;;;18.00;11.18;;;5.40;99.90;;;;;;4940874;28;20438;-73
2021/10/27 08:11:11;;;;;;;35.88;12.23;;;5.50;99.90;;;;;;4957006;28;20039;-73
2021/10/27 08:13:44;;;;;;;24.92;11.65;;;5.50;99.90;;;;;;4955838;28;20155;-73
2021/10/27 08:16:16;;;;;;;20.65;12.13;;;5.60;99.90;;;;;;4972869;28;20046;-74
2021/10/27 08:18:50;;;;;;;20.70;11.90;;;5.60;99.90;;;;;;4940637;28;20055;-72
2021/10/27 08:21:22;;;;;;;27.48;10.98;;;5.70;99.90;;;;;;4987647;28;20290;-73
2021/10/27 08:23:55;;;;;;;24.90;11.50;;;5.70;99.90;;;;;;4940501;28;20046;-73
2021/10/27 08:26:25;;;;;;;29.25;11.98;;;5.80;99.90;;;;;;4987470;28;20050;-73
2021/10/27 08:29:01;;;;;;;32.28;14.30;;;5.80;99.90;;;;;;4940507;28;20039;-73
2021/10/27 08:31:39;;;;;;;20.88;13.27;;;5.90;99.90;;;;;;4955590;28;20572;-74
2021/10/27 08:34:21;;;;;;;;;;;5.80;99.90;;;;;;4973069;28;20042;-74
2021/10/27 08:36:48;;;;;;;37.45;18.65;;;5.90;99.90;;;;;;4987930;28;19926;-73
2021/10/27 08:39:16;;;;;;;43.58;14.70;;;5.90;99.90;;;;;;4956105;28;20051;-74
2021/10/27 08:41:48;;;;;;;41.20;13.98;;;5.90;99.90;;;;;;4987366;28;20047;-73
2021/10/27 08:44:15;;;;;;;30.83;14.52;;;5.90;99.90;;;;;;4972553;28;20564;-74
2021/10/27 08:46:43;;;;;;;32.88;13.20;;;6.00;99.90;;;;;;4973031;28;20068;-74
2021/10/27 08:49:20;;;;;;;;;;;6.00;99.90;;;;;;4973137;28;20067;-73
2021/10/27 08:51:49;;;;;;;33.13;13.02;;;6.10;99.90;;;;;;4971278;28;20017;-74
2021/10/27 08:54:17;;;;;;;28.48;13.13;;;6.10;99.90;;;;;;4971653;28;20054;-73
2021/10/27 08:56:45;;;;;;;35.28;13.35;;;6.10;99.90;;;;;;4955745;28;20038;-74
2021/10/27 09:05:07;;;;;;;47.17;15.20;;;6.20;99.90;;;;;;4906121;28;20138;-73
2021/10/27 09:16:18;;;;;;;31.73;15.27;;;6.50;99.90;;;;;;4972119;28;20203;-74
2021/10/27 10:04:08;;;;;;;46.72;19.45;;;7.40;99.90;;;;;;4971717;28;20039;-72
2021/10/27 10:06:51;;;;;;;56.22;23.17;;;7.50;99.90;;;;;;4957003;28;20078;-71
2021/10/27 10:09:18;;;;;;;37.08;19.85;;;7.50;99.90;;;;;;4974393;28;20050;-74
2021/10/27 10:11:47;;;;;;;45.97;24.48;;;7.50;99.90;;;;;;4990663;28;20134;-73
2021/10/27 10:14:14;;;;;;;44.45;21.33;;;7.60;99.90;;;;;;4974186;28;20046;-74
2021/10/27 10:16:52;;;;;;;36.70;24.42;;;7.70;99.90;;;;;;4989773;28;20146;-74
2021/10/27 10:19:41;;;;;;;37.92;22.23;;;7.80;99.90;;;;;;4975667;28;20042;-73
2021/10/27 10:22:38;;;;;;;38.58;20.80;;;7.90;99.90;;;;;;4942301;28;20046;-74
2021/10/27 10:25:24;;;;;;;43.47;20.52;;;7.90;99.90;;;;;;4958654;28;20074;-71
2021/10/27 10:27:56;;;;;;;61.03;22.70;;;8.00;99.90;;;;;;4990500;28;20085;-74
2021/10/27 10:30:43;;;;;;;36.35;21.05;;;8.00;99.90;;;;;;4958478;28;20050;-74
2021/10/27 10:33:44;;;;;;;39.97;22.95;;;8.10;99.90;;;;;;4973168;28;20051;-74
2021/10/27 10:36:21;;;;;;;57.08;29.83;;;8.10;99.90;;;;;;4989234;28;20078;-74
2021/10/27 10:56:40;;;;;;;38.83;23.13;;;8.50;99.90;;;;;;4974334;28;20421;-73
2021/10/27 11:02:38;;;;;;;39.22;23.55;;;8.60;99.90;;;;;;4957920;28;20050;-73
2021/10/27 11:39:40;;;;;;;33.80;22.45;;;9.60;99.90;;;;;;4953058;29;20352;-73
2021/10/27 11:45:06;;;;;;;35.83;22.85;;;9.70;99.90;;;;;;4953213;29;20051;-74
2021/10/27 11:47:41;;;;;;;35.58;23.02;;;9.70;99.90;;;;;;4938096;28;20532;-73
2021/10/27 11:50:16;;;;;;;35.85;24.25;;;9.80;99.90;;;;;;4952763;29;20039;-73
2021/10/27 11:52:51;;;;;;;38.70;24.17;;;9.80;99.90;;;;;;4936832;29;20090;-74
2021/10/27 11:55:29;;;;;;;40.75;25.58;;;9.80;99.90;;;;;;4936480;29;20058;-74
2021/10/27 11:58:02;;;;;;;39.30;24.52;;;9.90;99.90;;;;;;4937470;29;20048;-72
2021/10/27 12:00:41;;;;;;;35.03;23.38;;;10.00;99.90;;;;;;4968481;28;20077;-74
2021/10/27 12:03:19;;;;;;;38.88;24.75;;;10.00;99.90;;;;;;4937394;29;20058;-74
2021/10/27 12:05:55;;;;;;;37.13;24.52;;;10.00;99.90;;;;;;4935769;29;20055;-73
2021/10/27 12:13:47;;;;;;;36.63;23.33;;;10.10;99.90;;;;;;4953366;28;20051;-72
2021/10/27 12:16:42;;;;;;;34.75;23.30;;;10.20;99.90;;;;;;4967959;28;20047;-72
2021/10/27 12:19:23;;;;;;;36.53;25.52;;;10.20;99.90;;;;;;4955225;28;20049;-73
2021/10/27 12:22:03;;;;;;;36.67;24.67;;;10.20;99.90;;;;;;4963867;28;20054;-72
2021/10/27 12:24:37;;;;;;;42.38;27.67;;;10.20;99.90;;;;;;4973573;28;20034;-73
2021/10/27 12:27:22;;;;;;;38.65;25.80;;;10.20;99.90;;;;;;4974168;28;20046;-71
2021/10/27 12:29:58;;;;;;;40.38;25.80;;;10.30;99.90;;;;;;4956657;28;20045;-73
2021/10/27 12:32:27;;;;;;;39.50;23.85;;;10.40;99.90;;;;;;4985796;28;20050;-73
2021/10/27 12:35:05;;;;;;;39.72;27.13;;;10.40;99.90;;;;;;4955636;28;20038;-73
2021/10/27 12:40:14;;;;;;;37.67;25.50;;;10.70;99.90;;;;;;4973302;28;20054;-73
2021/10/27 12:42:56;;;;;;;34.45;23.10;;;10.90;99.90;;;;;;4972498;28;20050;-72
2021/10/27 12:45:45;;;;;;;35.35;23.42;;;11.20;99.90;;;;;;4955673;28;20090;-72
2021/10/27 12:48:34;;;;;;;35.22;23.55;;;11.30;99.90;;;;;;4956322;28;20513;-73
2021/10/27 12:51:11;;;;;;;34.05;23.13;;;11.40;99.90;;;;;;4972358;28;20461;-73
2021/10/27 12:53:44;;;;;;;35.60;24.30;;;11.30;99.90;;;;;;4972831;28;20039;-73
2021/10/27 12:56:18;;;;;;;38.20;23.83;;;11.30;99.90;;;;;;4969414;28;20469;-72
2021/10/27 12:58:52;;;;;;;35.70;22.98;;;11.40;99.90;;;;;;4954044;28;20523;-73
2021/10/27 13:01:49;;;;;;;34.50;23.92;;;11.40;99.90;;;;;;4956066;28;20047;-73
2021/10/27 13:04:42;;;;;;;36.70;23.77;;;11.50;99.90;;;;;;4951878;29;20130;-73
2021/10/27 13:07:32;;;;;;;32.67;22.67;;;11.60;99.90;;;;;;4952703;28;20418;-73
2021/10/27 13:29:33;;;;;;;21.95;15.27;;;12.40;99.90;;;;;;4970995;28;20051;-73
2021/10/27 13:31:55;;;;;;;19.23;14.70;;;12.40;99.90;;;;;;4971334;28;20038;-73
2021/10/27 13:34:27;;;;;;;19.92;13.90;;;12.50;99.90;;;;;;4938415;28;20141;-73
2021/10/27 13:37:00;;;;;;;20.15;13.05;;;12.60;99.90;;;;;;4951863;28;20039;-73
2021/10/27 13:39:32;;;;;;;17.92;13.77;;;12.70;99.90;;;;;;4952796;28;20070;-73
2021/10/27 13:42:11;;;;;;;19.00;14.32;;;12.70;99.90;;;;;;4972255;28;20054;-73
2021/10/27 13:45:31;;;;;;;21.23;14.55;;;12.70;99.90;;;;;;4967247;28;20043;-73
2021/10/27 14:06:52;;;;;;;23.30;17.67;;;12.90;99.90;;;;;;4904545;29;20060;-73
2021/10/27 14:09:35;;;;;;;24.60;17.08;;;13.00;99.90;;;;;;4878244;29;20045;-73
2021/10/27 15:21:25;;;;;;;20.42;15.25;;;13.20;99.90;;;;;;4993118;28;20101;-74
2021/10/27 15:50:44;;;;;;;26.48;17.23;;;12.70;99.90;;;;;;4970208;28;20039;-73
2021/10/27 15:53:18;;;;;;;30.88;18.85;;;12.60;99.90;;;;;;4995296;28;20050;-73
2021/10/27 15:55:45;;;;;;;31.20;19.42;;;12.40;99.90;;;;;;4972492;28;20534;-74
2021/10/27 15:58:17;;;;;;;30.27;19.73;;;12.30;99.90;;;;;;4971533;28;20039;-73
2021/10/27 16:00:49;;;;;;;37.08;21.35;;;12.30;99.90;;;;;;4973551;28;20089;-73
2021/10/27 16:03:21;;;;;;;35.83;24.52;;;12.20;99.90;;;;;;4954895;28;20043;-73
2021/10/27 16:05:50;;;;;;;34.20;22.83;;;12.00;99.90;;;;;;4983970;28;20106;-73
2021/10/27 16:08:20;;;;;;;33.95;24.00;;;12.00;99.90;;;;;;4954855;28;20047;-73
2021/10/27 16:10:52;;;;;;;30.80;21.42;;;11.90;99.90;;;;;;4970758;28;20054;-73
2021/10/27 16:13:19;;;;;;;28.48;21.00;;;11.90;99.90;;;;;;4971285;28;20081;-73
2021/10/27 16:15:56;;;;;;;27.85;20.33;;;11.80;99.90;;;;;;4955613;28;20039;-73
2021/10/27 16:18:31;;;;;;;25.65;18.80;;;11.70;99.90;;;;;;4955693;28;20241;-75
2021/10/27 16:21:04;;;;;;;23.90;17.33;;;11.60;99.90;;;;;;4956257;28;20042;-73
2021/10/27 16:23:36;;;;;;;23.75;16.85;;;11.60;99.90;;;;;;4955762;28;20069;-73
2021/10/27 16:26:04;;;;;;;27.73;17.63;;;11.50;99.90;;;;;;4973777;28;20046;-73
2021/10/27 16:28:36;;;;;;;21.45;15.65;;;11.40;99.90;;;;;;4972556;28;20089;-73
2021/10/27 16:31:08;;;;;;;23.85;16.77;;;11.40;99.90;;;;;;4952701;28;20066;-73
2021/10/27 16:33:36;;;;;;;22.67;16.35;;;11.30;99.90;;;;;;4950918;28;20049;-73
2021/10/27 16:36:04;;;;;;;22.67;16.13;;;11.20;99.90;;;;;;4970992;28;20035;-73
2021/10/27 16:38:31;;;;;;;22.92;15.55;;;11.20;99.90;;;;;;4971461;28;20049;-73
2021/10/27 16:40:59;;;;;;;25.25;16.48;;;11.10;99.90;;;;;;4971149;28;20055;-73
2021/10/27 16:43:31;;;;;;;27.45;18.00;;;11.10;99.90;;;;;;4954315;28;20054;-73
2021/10/27 16:46:04;;;;;;;28.58;19.90;;;11.00;99.90;;;;;;4932861;28;20413;-73
2021/10/27 16:48:30;;;;;;;26.05;17.98;;;11.00;99.90;;;;;;4949896;28;20426;-73
2021/10/27 16:50:58;;;;;;;32.92;21.70;;;10.90;99.90;;;;;;4966709;28;20410;-73
2021/10/27 16:53:31;;;;;;;40.83;26.30;;;10.80;99.90;;;;;;4969251;28;20034;-73
2021/10/27 16:56:04;;;;;;;43.55;28.63;;;10.60;99.90;;;;;;4951414;28;20102;-73
2021/10/27 16:58:31;;;;;;;45.63;31.17;;;10.40;99.90;;;;;;4939319;28;20042;-73
2021/10/27 17:01:03;;;;;;;46.30;30.08;;;10.30;99.90;;;;;;4949788;28;20748;-73
2021/10/27 17:03:37;;;;;;;43.25;27.95;;;10.10;99.90;;;;;;4959444;28;20110;-73
2021/10/27 17:06:04;;;;;;;30.88;19.98;;;10.00;99.90;;;;;;4945900;28;20039;-72
2021/10/27 17:08:39;;;;;;;36.87;23.07;;;9.90;99.90;;;;;;4949968;28;20402;-73
2021/10/27 17:11:06;;;;;;;32.80;20.92;;;9.80;99.90;;;;;;4970683;28;20305;-73
2021/10/27 17:13:39;;;;;;;36.03;21.80;;;9.70;99.90;;;;;;4954312;28;20410;-73
2021/10/27 17:16:11;;;;;;;37.70;21.33;;;9.60;99.90;;;;;;4954307;28;20047;-74
2021/10/27 17:18:38;;;;;;;32.10;20.92;;;9.50;99.90;;;;;;4941694;28;20469;-73
2021/10/27 17:21:09;;;;;;;28.65;19.58;;;9.40;99.90;;;;;;4973251;28;20050;-73
2021/10/27 17:23:41;;;;;;;29.55;19.92;;;9.30;99.90;;;;;;4989645;28;20133;-73
2021/10/27 17:26:09;;;;;;;26.38;19.17;;;9.10;99.90;;;;;;5005601;28;20186;-74
2021/10/27 17:28:36;;;;;;;28.33;19.40;;;9.00;99.90;;;;;;5006138;28;20105;-74
2021/10/27 17:31:03;;;;;;;42.38;25.70;;;9.00;99.90;;;;;;4960556;28;20047;-74
2021/10/27 17:33:30;;;;;;;61.25;35.63;;;8.90;99.90;;;;;;4954251;28;20039;-74
2021/10/27 17:36:02;;;;;;;51.03;30.25;;;8.80;99.90;;;;;;4953827;28;20046;-73
2021/10/27 17:38:34;;;;;;;41.45;26.38;;;8.80;99.90;;;;;;4953106;28;20390;-74
2021/10/27 17:41:06;;;;;;;45.05;25.17;;;8.70;99.90;;;;;;4949998;28;20046;-74
2021/10/27 17:43:34;;;;;;;43.40;24.88;;;8.60;99.90;;;;;;4976846;28;20050;-73
2021/10/27 17:46:03;;;;;;;44.95;24.30;;;8.60;99.90;;;;;;4957914;28;20046;-73
2021/10/27 17:48:41;;;;;;;46.63;26.00;;;8.60;99.90;;;;;;4988787;28;20062;-72
2021/10/27 17:51:17;;;;;;;41.78;25.15;;;8.60;99.90;;;;;;4983257;28;20051;-70
2021/10/27 17:59:33;;;;;;;45.63;29.25;;;8.60;99.90;;;;;;4970159;28;20031;-72
2021/10/27 18:02:05;;;;;;;48.25;28.67;;;8.50;99.90;;;;;;4969715;28;20066;-73
2021/10/27 18:04:33;;;;;;;47.22;30.65;;;8.50;99.90;;;;;;4949080;28;20513;-72
2021/10/27 18:07:04;;;;;;;47.72;29.48;;;8.50;99.90;;;;;;4953928;28;21096;-72